sensor_id;sensor_type;location;lat;lon;timestamp;temperature;humidity
47861;HTU21D;33620;52.340;5.984;2023-08-06T00:00:49;16.33;91.98
47861;HTU21D;33620;52.340;5.984;2023-08-06T00:03:15;16.30;91.83
47861;HTU21D;33620;52.340;5.984;2023-08-06T00:05:43;16.34;91.98
47861;HTU21D;33620;52.340;5.984;2023-08-06T00:08:09;16.32;91.94
47861;HTU21D;33620;52.340;5.984;2023-08-06T00:10:34;16.36;92.05
47861;HTU21D;33620;52.340;5.984;2023-08-06T00:12:59;16.37;91.88
47861;HTU21D;33620;52.340;5.984;2023-08-06T00:15:25;16.36;91.86
47861;HTU21D;33620;52.340;5.984;2023-08-06T00:17:50;16.37;91.85
47861;HTU21D;33620;52.340;5.984;2023-08-06T00:20:16;16.36;91.87
47861;HTU21D;33620;52.340;5.984;2023-08-06T00:22:41;16.37;91.92
47861;HTU21D;33620;52.340;5.984;2023-08-06T00:25:07;16.36;91.82
47861;HTU21D;33620;52.340;5.984;2023-08-06T00:27:32;16.36;91.71
47861;HTU21D;33620;52.340;5.984;2023-08-06T00:29:58;16.35;91.82
47861;HTU21D;33620;52.340;5.984;2023-08-06T00:32:23;16.33;91.68
47861;HTU21D;33620;52.340;5.984;2023-08-06T00:34:49;16.32;91.55
47861;HTU21D;33620;52.340;5.984;2023-08-06T00:37:16;16.30;91.60
47861;HTU21D;33620;52.340;5.984;2023-08-06T00:39:42;16.29;91.66
47861;HTU21D;33620;52.340;5.984;2023-08-06T00:42:07;16.27;91.66
47861;HTU21D;33620;52.340;5.984;2023-08-06T00:44:33;16.28;91.82
47861;HTU21D;33620;52.340;5.984;2023-08-06T00:46:58;16.26;91.73
47861;HTU21D;33620;52.340;5.984;2023-08-06T00:49:24;16.27;91.68
47861;HTU21D;33620;52.340;5.984;2023-08-06T00:51:49;16.25;91.62
47861;HTU21D;33620;52.340;5.984;2023-08-06T00:54:15;16.25;91.55
47861;HTU21D;33620;52.340;5.984;2023-08-06T00:56:41;16.22;91.53
47861;HTU21D;33620;52.340;5.984;2023-08-06T00:59:07;16.24;91.50
47861;HTU21D;33620;52.340;5.984;2023-08-06T01:01:33;16.20;91.39
47861;HTU21D;33620;52.340;5.984;2023-08-06T01:03:59;16.19;91.55
47861;HTU21D;33620;52.340;5.984;2023-08-06T01:06:40;16.19;91.66
47861;HTU21D;33620;52.340;5.984;2023-08-06T01:13:14;16.21;91.62
47861;HTU21D;33620;52.340;5.984;2023-08-06T01:15:22;16.20;91.69
47861;HTU21D;33620;52.340;5.984;2023-08-06T01:17:50;16.20;91.69
47861;HTU21D;33620;52.340;5.984;2023-08-06T01:20:15;16.22;91.65
47861;HTU21D;33620;52.340;5.984;2023-08-06T01:22:40;16.22;91.66
47861;HTU21D;33620;52.340;5.984;2023-08-06T01:25:07;16.22;91.75
47861;HTU21D;33620;52.340;5.984;2023-08-06T01:27:48;16.21;91.73
47861;HTU21D;33620;52.340;5.984;2023-08-06T01:30:21;16.20;91.72
47861;HTU21D;33620;52.340;5.984;2023-08-06T01:32:50;16.20;91.74
47861;HTU21D;33620;52.340;5.984;2023-08-06T01:35:19;16.19;91.79
47861;HTU21D;33620;52.340;5.984;2023-08-06T01:37:45;16.19;91.92
47861;HTU21D;33620;52.340;5.984;2023-08-06T01:40:13;16.21;91.95
47861;HTU21D;33620;52.340;5.984;2023-08-06T01:42:39;16.19;91.93
47861;HTU21D;33620;52.340;5.984;2023-08-06T01:45:06;16.18;91.89
47861;HTU21D;33620;52.340;5.984;2023-08-06T01:47:31;16.17;91.84
47861;HTU21D;33620;52.340;5.984;2023-08-06T01:49:57;16.17;91.82
47861;HTU21D;33620;52.340;5.984;2023-08-06T01:52:22;16.17;91.94
47861;HTU21D;33620;52.340;5.984;2023-08-06T01:54:47;16.16;91.94
47861;HTU21D;33620;52.340;5.984;2023-08-06T01:57:13;16.16;91.93
47861;HTU21D;33620;52.340;5.984;2023-08-06T01:59:38;16.18;92.04
47861;HTU21D;33620;52.340;5.984;2023-08-06T02:02:04;16.18;91.95
47861;HTU21D;33620;52.340;5.984;2023-08-06T02:04:29;16.15;91.82
47861;HTU21D;33620;52.340;5.984;2023-08-06T02:06:55;16.15;91.88
47861;HTU21D;33620;52.340;5.984;2023-08-06T02:09:20;16.15;91.86
47861;HTU21D;33620;52.340;5.984;2023-08-06T02:11:46;16.16;91.98
47861;HTU21D;33620;52.340;5.984;2023-08-06T02:14:11;16.17;91.95
47861;HTU21D;33620;52.340;5.984;2023-08-06T02:16:37;16.16;91.98
47861;HTU21D;33620;52.340;5.984;2023-08-06T02:19:02;16.17;91.92
47861;HTU21D;33620;52.340;5.984;2023-08-06T02:21:28;16.17;91.89
47861;HTU21D;33620;52.340;5.984;2023-08-06T02:23:53;16.16;91.81
47861;HTU21D;33620;52.340;5.984;2023-08-06T02:26:19;16.14;91.85
47861;HTU21D;33620;52.340;5.984;2023-08-06T02:28:44;16.14;91.81
47861;HTU21D;33620;52.340;5.984;2023-08-06T02:31:10;16.14;91.90
47861;HTU21D;33620;52.340;5.984;2023-08-06T02:33:35;16.15;91.89
47861;HTU21D;33620;52.340;5.984;2023-08-06T02:36:01;16.15;91.95
47861;HTU21D;33620;52.340;5.984;2023-08-06T02:38:28;16.16;91.84
47861;HTU21D;33620;52.340;5.984;2023-08-06T02:40:54;16.14;91.73
47861;HTU21D;33620;52.340;5.984;2023-08-06T02:43:19;16.14;91.69
47861;HTU21D;33620;52.340;5.984;2023-08-06T02:45:45;16.15;91.82
47861;HTU21D;33620;52.340;5.984;2023-08-06T02:48:11;16.16;91.82
47861;HTU21D;33620;52.340;5.984;2023-08-06T02:50:40;16.17;91.97
47861;HTU21D;33620;52.340;5.984;2023-08-06T02:53:06;16.19;91.78
47861;HTU21D;33620;52.340;5.984;2023-08-06T02:55:32;16.20;91.76
47861;HTU21D;33620;52.340;5.984;2023-08-06T02:57:59;16.20;91.82
47861;HTU21D;33620;52.340;5.984;2023-08-06T03:00:24;16.19;91.72
47861;HTU21D;33620;52.340;5.984;2023-08-06T03:02:50;16.19;91.72
47861;HTU21D;33620;52.340;5.984;2023-08-06T03:05:16;16.20;91.72
47861;HTU21D;33620;52.340;5.984;2023-08-06T03:07:41;16.19;91.69
47861;HTU21D;33620;52.340;5.984;2023-08-06T03:10:07;16.20;91.57
47861;HTU21D;33620;52.340;5.984;2023-08-06T03:12:32;16.21;91.63
47861;HTU21D;33620;52.340;5.984;2023-08-06T03:14:58;16.21;91.61
47861;HTU21D;33620;52.340;5.984;2023-08-06T03:17:23;16.20;91.66
47861;HTU21D;33620;52.340;5.984;2023-08-06T03:19:48;16.20;91.56
47861;HTU21D;33620;52.340;5.984;2023-08-06T03:22:14;16.18;91.63
47861;HTU21D;33620;52.340;5.984;2023-08-06T03:24:39;16.18;91.66
47861;HTU21D;33620;52.340;5.984;2023-08-06T03:27:05;16.17;91.63
47861;HTU21D;33620;52.340;5.984;2023-08-06T03:29:30;16.17;91.72
47861;HTU21D;33620;52.340;5.984;2023-08-06T03:31:56;16.17;91.76
47861;HTU21D;33620;52.340;5.984;2023-08-06T03:34:21;16.16;91.68
47861;HTU21D;33620;52.340;5.984;2023-08-06T03:36:47;16.17;91.73
47861;HTU21D;33620;52.340;5.984;2023-08-06T03:39:12;16.16;91.63
47861;HTU21D;33620;52.340;5.984;2023-08-06T03:41:39;16.15;91.75
47861;HTU21D;33620;52.340;5.984;2023-08-06T03:44:04;16.15;91.78
47861;HTU21D;33620;52.340;5.984;2023-08-06T03:46:30;16.14;91.67
47861;HTU21D;33620;52.340;5.984;2023-08-06T03:48:59;16.11;91.78
47861;HTU21D;33620;52.340;5.984;2023-08-06T03:51:24;16.08;91.79
47861;HTU21D;33620;52.340;5.984;2023-08-06T03:53:50;16.07;91.82
47861;HTU21D;33620;52.340;5.984;2023-08-06T03:56:15;16.06;91.85
47861;HTU21D;33620;52.340;5.984;2023-08-06T03:58:40;16.05;91.94
47861;HTU21D;33620;52.340;5.984;2023-08-06T04:01:06;16.05;91.93
47861;HTU21D;33620;52.340;5.984;2023-08-06T04:03:31;16.05;91.98
47861;HTU21D;33620;52.340;5.984;2023-08-06T04:05:56;16.02;91.88
47861;HTU21D;33620;52.340;5.984;2023-08-06T04:08:22;16.03;91.93
47861;HTU21D;33620;52.340;5.984;2023-08-06T04:10:53;16.02;91.98
47861;HTU21D;33620;52.340;5.984;2023-08-06T04:13:19;16.00;91.97
47861;HTU21D;33620;52.340;5.984;2023-08-06T04:15:45;15.99;92.05
47861;HTU21D;33620;52.340;5.984;2023-08-06T04:18:11;15.98;92.10
47861;HTU21D;33620;52.340;5.984;2023-08-06T04:20:43;15.97;92.14
47861;HTU21D;33620;52.340;5.984;2023-08-06T04:23:10;15.97;92.14
47861;HTU21D;33620;52.340;5.984;2023-08-06T04:25:35;15.99;92.34
47861;HTU21D;33620;52.340;5.984;2023-08-06T04:28:01;15.99;92.23
47861;HTU21D;33620;52.340;5.984;2023-08-06T04:30:26;16.01;92.29
47861;HTU21D;33620;52.340;5.984;2023-08-06T04:32:52;16.00;92.11
47861;HTU21D;33620;52.340;5.984;2023-08-06T04:35:17;15.99;92.14
47861;HTU21D;33620;52.340;5.984;2023-08-06T04:37:42;16.00;92.14
47861;HTU21D;33620;52.340;5.984;2023-08-06T04:40:08;15.98;92.02
47861;HTU21D;33620;52.340;5.984;2023-08-06T04:42:34;15.99;92.09
47861;HTU21D;33620;52.340;5.984;2023-08-06T04:45:01;15.98;92.01
47861;HTU21D;33620;52.340;5.984;2023-08-06T04:47:26;15.97;91.99
47861;HTU21D;33620;52.340;5.984;2023-08-06T04:49:52;15.95;91.99
47861;HTU21D;33620;52.340;5.984;2023-08-06T04:52:17;15.95;92.11
47861;HTU21D;33620;52.340;5.984;2023-08-06T04:54:43;15.95;92.18
47861;HTU21D;33620;52.340;5.984;2023-08-06T04:57:09;15.95;92.08
47861;HTU21D;33620;52.340;5.984;2023-08-06T04:59:35;15.93;92.10
47861;HTU21D;33620;52.340;5.984;2023-08-06T05:02:00;15.93;92.12
47861;HTU21D;33620;52.340;5.984;2023-08-06T05:04:25;15.93;92.24
47861;HTU21D;33620;52.340;5.984;2023-08-06T05:06:51;15.92;92.17
47861;HTU21D;33620;52.340;5.984;2023-08-06T05:09:16;15.92;92.05
47861;HTU21D;33620;52.340;5.984;2023-08-06T05:11:42;15.91;92.25
47861;HTU21D;33620;52.340;5.984;2023-08-06T05:14:07;15.91;92.29
47861;HTU21D;33620;52.340;5.984;2023-08-06T05:16:32;15.92;92.23
47861;HTU21D;33620;52.340;5.984;2023-08-06T05:18:58;15.93;92.32
47861;HTU21D;33620;52.340;5.984;2023-08-06T05:21:23;15.96;92.27
47861;HTU21D;33620;52.340;5.984;2023-08-06T05:23:48;15.98;92.30
47861;HTU21D;33620;52.340;5.984;2023-08-06T05:26:14;15.99;92.17
47861;HTU21D;33620;52.340;5.984;2023-08-06T05:28:43;16.00;91.92
47861;HTU21D;33620;52.340;5.984;2023-08-06T05:31:09;16.00;92.05
47861;HTU21D;33620;52.340;5.984;2023-08-06T05:33:34;16.02;92.13
47861;HTU21D;33620;52.340;5.984;2023-08-06T05:36:00;16.04;92.06
47861;HTU21D;33620;52.340;5.984;2023-08-06T05:38:25;16.05;92.07
47861;HTU21D;33620;52.340;5.984;2023-08-06T05:40:50;16.05;92.01
47861;HTU21D;33620;52.340;5.984;2023-08-06T05:43:16;16.06;91.98
47861;HTU21D;33620;52.340;5.984;2023-08-06T05:45:45;16.06;91.98
47861;HTU21D;33620;52.340;5.984;2023-08-06T05:48:13;16.08;91.91
47861;HTU21D;33620;52.340;5.984;2023-08-06T05:50:39;16.12;92.01
47861;HTU21D;33620;52.340;5.984;2023-08-06T05:53:04;16.12;92.06
47861;HTU21D;33620;52.340;5.984;2023-08-06T05:55:30;16.15;92.09
47861;HTU21D;33620;52.340;5.984;2023-08-06T05:57:57;16.16;92.03
47861;HTU21D;33620;52.340;5.984;2023-08-06T06:00:22;16.18;92.03
47861;HTU21D;33620;52.340;5.984;2023-08-06T06:02:48;16.21;92.05
47861;HTU21D;33620;52.340;5.984;2023-08-06T06:05:13;16.21;92.05
47861;HTU21D;33620;52.340;5.984;2023-08-06T06:07:39;16.24;92.01
47861;HTU21D;33620;52.340;5.984;2023-08-06T06:10:05;16.25;91.92
47861;HTU21D;33620;52.340;5.984;2023-08-06T06:12:30;16.27;92.05
47861;HTU21D;33620;52.340;5.984;2023-08-06T06:14:56;16.30;91.93
47861;HTU21D;33620;52.340;5.984;2023-08-06T06:17:21;16.29;92.08
47861;HTU21D;33620;52.340;5.984;2023-08-06T06:19:46;16.33;92.07
47861;HTU21D;33620;52.340;5.984;2023-08-06T06:22:12;16.33;91.95
47861;HTU21D;33620;52.340;5.984;2023-08-06T06:24:37;16.35;91.85
47861;HTU21D;33620;52.340;5.984;2023-08-06T06:27:03;16.34;91.88
47861;HTU21D;33620;52.340;5.984;2023-08-06T06:29:29;16.37;91.88
47861;HTU21D;33620;52.340;5.984;2023-08-06T06:31:54;16.32;91.85
47861;HTU21D;33620;52.340;5.984;2023-08-06T06:34:19;16.35;92.08
47861;HTU21D;33620;52.340;5.984;2023-08-06T06:36:45;16.40;92.30
47861;HTU21D;33620;52.340;5.984;2023-08-06T06:39:10;16.42;92.44
47861;HTU21D;33620;52.340;5.984;2023-08-06T06:41:36;16.46;92.27
47861;HTU21D;33620;52.340;5.984;2023-08-06T06:44:01;16.47;92.24
47861;HTU21D;33620;52.340;5.984;2023-08-06T06:46:26;16.49;92.02
47861;HTU21D;33620;52.340;5.984;2023-08-06T06:48:52;16.49;92.12
47861;HTU21D;33620;52.340;5.984;2023-08-06T06:51:17;16.49;92.11
47861;HTU21D;33620;52.340;5.984;2023-08-06T06:53:42;16.48;92.10
47861;HTU21D;33620;52.340;5.984;2023-08-06T06:56:08;16.50;92.23
47861;HTU21D;33620;52.340;5.984;2023-08-06T06:58:33;16.55;91.95
47861;HTU21D;33620;52.340;5.984;2023-08-06T07:00:59;16.59;91.94
47861;HTU21D;33620;52.340;5.984;2023-08-06T07:03:24;16.62;91.78
47861;HTU21D;33620;52.340;5.984;2023-08-06T07:05:50;16.63;91.69
47861;HTU21D;33620;52.340;5.984;2023-08-06T07:08:15;16.65;91.59
47861;HTU21D;33620;52.340;5.984;2023-08-06T07:10:41;16.67;91.49
47861;HTU21D;33620;52.340;5.984;2023-08-06T07:13:08;16.64;91.04
47861;HTU21D;33620;52.340;5.984;2023-08-06T07:15:33;16.62;91.43
47861;HTU21D;33620;52.340;5.984;2023-08-06T07:17:59;16.63;91.82
47861;HTU21D;33620;52.340;5.984;2023-08-06T07:20:24;16.66;91.70
47861;HTU21D;33620;52.340;5.984;2023-08-06T07:22:49;16.71;91.76
47861;HTU21D;33620;52.340;5.984;2023-08-06T07:25:16;16.71;91.70
47861;HTU21D;33620;52.340;5.984;2023-08-06T07:27:41;16.67;91.45
47861;HTU21D;33620;52.340;5.984;2023-08-06T07:30:07;16.66;91.58
47861;HTU21D;33620;52.340;5.984;2023-08-06T07:32:33;16.64;91.63
47861;HTU21D;33620;52.340;5.984;2023-08-06T07:34:58;16.66;91.97
47861;HTU21D;33620;52.340;5.984;2023-08-06T07:37:29;16.67;91.69
47861;HTU21D;33620;52.340;5.984;2023-08-06T07:39:55;16.63;91.85
47861;HTU21D;33620;52.340;5.984;2023-08-06T07:42:20;16.62;92.09
47861;HTU21D;33620;52.340;5.984;2023-08-06T07:44:55;16.69;92.40
47861;HTU21D;33620;52.340;5.984;2023-08-06T07:47:21;16.71;92.43
47861;HTU21D;33620;52.340;5.984;2023-08-06T07:49:46;16.73;92.15
47861;HTU21D;33620;52.340;5.984;2023-08-06T07:52:12;16.73;91.93
47861;HTU21D;33620;52.340;5.984;2023-08-06T07:54:37;16.74;91.67
47861;HTU21D;33620;52.340;5.984;2023-08-06T07:57:03;16.76;91.82
47861;HTU21D;33620;52.340;5.984;2023-08-06T07:59:28;16.80;91.75
47861;HTU21D;33620;52.340;5.984;2023-08-06T08:01:53;16.87;91.48
47861;HTU21D;33620;52.340;5.984;2023-08-06T08:04:19;16.91;91.90
47861;HTU21D;33620;52.340;5.984;2023-08-06T08:06:44;17.03;92.16
47861;HTU21D;33620;52.340;5.984;2023-08-06T08:09:09;17.08;92.10
47861;HTU21D;33620;52.340;5.984;2023-08-06T08:11:35;17.15;92.25
47861;HTU21D;33620;52.340;5.984;2023-08-06T08:14:00;17.18;91.90
47861;HTU21D;33620;52.340;5.984;2023-08-06T08:16:26;17.18;91.60
47861;HTU21D;33620;52.340;5.984;2023-08-06T08:18:51;17.16;91.24
47861;HTU21D;33620;52.340;5.984;2023-08-06T08:21:16;17.16;91.24
47861;HTU21D;33620;52.340;5.984;2023-08-06T08:23:43;17.16;91.13
47861;HTU21D;33620;52.340;5.984;2023-08-06T08:26:09;17.22;91.48
47861;HTU21D;33620;52.340;5.984;2023-08-06T08:28:34;17.23;91.23
47861;HTU21D;33620;52.340;5.984;2023-08-06T08:31:00;17.21;91.22
47861;HTU21D;33620;52.340;5.984;2023-08-06T08:33:25;17.23;91.53
47861;HTU21D;33620;52.340;5.984;2023-08-06T08:35:50;17.30;91.56
47861;HTU21D;33620;52.340;5.984;2023-08-06T08:38:16;17.33;90.86
47861;HTU21D;33620;52.340;5.984;2023-08-06T08:40:45;17.30;90.38
47861;HTU21D;33620;52.340;5.984;2023-08-06T08:43:13;17.32;90.66
47861;HTU21D;33620;52.340;5.984;2023-08-06T08:45:42;17.23;89.95
47861;HTU21D;33620;52.340;5.984;2023-08-06T08:48:10;17.21;90.61
47861;HTU21D;33620;52.340;5.984;2023-08-06T08:50:36;17.17;90.68
47861;HTU21D;33620;52.340;5.984;2023-08-06T08:53:02;17.18;90.63
47861;HTU21D;33620;52.340;5.984;2023-08-06T08:55:28;17.20;90.78
47861;HTU21D;33620;52.340;5.984;2023-08-06T08:57:53;17.19;90.32
47861;HTU21D;33620;52.340;5.984;2023-08-06T09:00:19;17.21;90.67
47861;HTU21D;33620;52.340;5.984;2023-08-06T09:02:45;17.20;89.70
47861;HTU21D;33620;52.340;5.984;2023-08-06T09:05:12;17.19;90.40
47861;HTU21D;33620;52.340;5.984;2023-08-06T09:07:42;17.23;90.21
47861;HTU21D;33620;52.340;5.984;2023-08-06T09:10:11;17.11;89.52
47861;HTU21D;33620;52.340;5.984;2023-08-06T09:12:39;17.13;89.74
47861;HTU21D;33620;52.340;5.984;2023-08-06T09:15:04;17.15;90.37
47861;HTU21D;33620;52.340;5.984;2023-08-06T09:17:30;17.17;90.06
47861;HTU21D;33620;52.340;5.984;2023-08-06T09:19:56;17.18;90.25
47861;HTU21D;33620;52.340;5.984;2023-08-06T09:22:21;17.13;90.18
47861;HTU21D;33620;52.340;5.984;2023-08-06T09:24:47;17.21;90.55
47861;HTU21D;33620;52.340;5.984;2023-08-06T09:27:13;17.28;90.76
47861;HTU21D;33620;52.340;5.984;2023-08-06T09:29:43;17.38;90.45
47861;HTU21D;33620;52.340;5.984;2023-08-06T09:32:10;17.35;89.26
47861;HTU21D;33620;52.340;5.984;2023-08-06T09:34:38;17.38;89.84
47861;HTU21D;33620;52.340;5.984;2023-08-06T09:37:04;17.43;89.34
47861;HTU21D;33620;52.340;5.984;2023-08-06T09:39:30;17.40;88.64
47861;HTU21D;33620;52.340;5.984;2023-08-06T09:41:57;17.38;89.29
47861;HTU21D;33620;52.340;5.984;2023-08-06T09:44:25;17.43;89.66
47861;HTU21D;33620;52.340;5.984;2023-08-06T09:46:58;17.38;89.09
47861;HTU21D;33620;52.340;5.984;2023-08-06T09:51:53;17.47;89.43
47861;HTU21D;33620;52.340;5.984;2023-08-06T09:54:22;17.49;88.96
47861;HTU21D;33620;52.340;5.984;2023-08-06T09:56:48;17.56;89.66
47861;HTU21D;33620;52.340;5.984;2023-08-06T09:59:13;17.60;89.07
47861;HTU21D;33620;52.340;5.984;2023-08-06T10:01:41;17.64;89.00
47861;HTU21D;33620;52.340;5.984;2023-08-06T10:04:06;17.66;88.24
47861;HTU21D;33620;52.340;5.984;2023-08-06T10:06:37;17.68;88.78
47861;HTU21D;33620;52.340;5.984;2023-08-06T10:09:05;17.79;88.70
47861;HTU21D;33620;52.340;5.984;2023-08-06T10:11:31;17.85;88.41
47861;HTU21D;33620;52.340;5.984;2023-08-06T10:14:02;17.91;86.87
47861;HTU21D;33620;52.340;5.984;2023-08-06T10:16:29;17.96;86.81
47861;HTU21D;33620;52.340;5.984;2023-08-06T10:18:55;17.92;86.47
47861;HTU21D;33620;52.340;5.984;2023-08-06T10:21:24;18.03;86.92
47861;HTU21D;33620;52.340;5.984;2023-08-06T10:23:54;18.06;86.36
47861;HTU21D;33620;52.340;5.984;2023-08-06T10:26:20;18.15;86.25
47861;HTU21D;33620;52.340;5.984;2023-08-06T10:28:45;18.27;86.73
47861;HTU21D;33620;52.340;5.984;2023-08-06T10:31:11;18.39;86.02
47861;HTU21D;33620;52.340;5.984;2023-08-06T10:33:43;18.47;85.77
47861;HTU21D;33620;52.340;5.984;2023-08-06T10:36:10;18.42;85.61
47861;HTU21D;33620;52.340;5.984;2023-08-06T10:38:44;18.42;84.97
47861;HTU21D;33620;52.340;5.984;2023-08-06T10:41:27;18.42;85.00
47861;HTU21D;33620;52.340;5.984;2023-08-06T10:44:05;18.44;84.87
47861;HTU21D;33620;52.340;5.984;2023-08-06T10:46:32;18.53;85.79
47861;HTU21D;33620;52.340;5.984;2023-08-06T10:48:58;18.57;86.55
47861;HTU21D;33620;52.340;5.984;2023-08-06T10:51:24;18.56;85.33
47861;HTU21D;33620;52.340;5.984;2023-08-06T10:53:50;18.42;85.39
47861;HTU21D;33620;52.340;5.984;2023-08-06T10:56:17;18.40;85.80
47861;HTU21D;33620;52.340;5.984;2023-08-06T10:58:44;18.41;85.52
47861;HTU21D;33620;52.340;5.984;2023-08-06T11:01:10;18.47;85.73
47861;HTU21D;33620;52.340;5.984;2023-08-06T11:03:37;18.54;85.48
47861;HTU21D;33620;52.340;5.984;2023-08-06T11:06:02;18.57;84.62
47861;HTU21D;33620;52.340;5.984;2023-08-06T11:08:34;18.70;85.18
47861;HTU21D;33620;52.340;5.984;2023-08-06T11:11:16;18.81;84.48
47861;HTU21D;33620;52.340;5.984;2023-08-06T11:13:43;18.91;84.90
47861;HTU21D;33620;52.340;5.984;2023-08-06T11:16:12;18.92;83.86
47861;HTU21D;33620;52.340;5.984;2023-08-06T11:18:38;18.93;84.24
47861;HTU21D;33620;52.340;5.984;2023-08-06T11:21:04;19.02;84.42
47861;HTU21D;33620;52.340;5.984;2023-08-06T11:23:30;19.05;82.95
47861;HTU21D;33620;52.340;5.984;2023-08-06T11:25:59;18.99;82.93
47861;HTU21D;33620;52.340;5.984;2023-08-06T11:28:24;18.97;81.76
47861;HTU21D;33620;52.340;5.984;2023-08-06T11:30:50;19.00;83.04
47861;HTU21D;33620;52.340;5.984;2023-08-06T11:33:22;19.12;82.80
47861;HTU21D;33620;52.340;5.984;2023-08-06T11:35:50;19.23;80.49
47861;HTU21D;33620;52.340;5.984;2023-08-06T11:38:16;19.32;80.36
47861;HTU21D;33620;52.340;5.984;2023-08-06T11:40:44;19.28;79.76
47861;HTU21D;33620;52.340;5.984;2023-08-06T11:43:09;19.26;79.96
47861;HTU21D;33620;52.340;5.984;2023-08-06T11:45:35;19.27;80.32
47861;HTU21D;33620;52.340;5.984;2023-08-06T11:48:01;19.25;80.11
47861;HTU21D;33620;52.340;5.984;2023-08-06T11:50:26;19.38;81.40
47861;HTU21D;33620;52.340;5.984;2023-08-06T11:52:57;19.51;80.79
47861;HTU21D;33620;52.340;5.984;2023-08-06T11:55:24;19.50;79.53
47861;HTU21D;33620;52.340;5.984;2023-08-06T11:57:50;19.42;79.93
47861;HTU21D;33620;52.340;5.984;2023-08-06T12:00:15;19.50;81.24
47861;HTU21D;33620;52.340;5.984;2023-08-06T12:02:46;19.53;79.15
47861;HTU21D;33620;52.340;5.984;2023-08-06T12:05:16;19.62;79.16
47861;HTU21D;33620;52.340;5.984;2023-08-06T12:07:46;19.70;78.70
47861;HTU21D;33620;52.340;5.984;2023-08-06T12:10:13;19.68;78.92
47861;HTU21D;33620;52.340;5.984;2023-08-06T12:12:39;19.60;79.15
47861;HTU21D;33620;52.340;5.984;2023-08-06T12:15:05;19.52;79.56
47861;HTU21D;33620;52.340;5.984;2023-08-06T12:17:32;19.33;80.32
47861;HTU21D;33620;52.340;5.984;2023-08-06T12:19:57;19.24;81.06
47861;HTU21D;33620;52.340;5.984;2023-08-06T12:22:23;19.21;82.28
47861;HTU21D;33620;52.340;5.984;2023-08-06T12:24:48;19.06;82.42
47861;HTU21D;33620;52.340;5.984;2023-08-06T12:27:14;19.03;83.32
47861;HTU21D;33620;52.340;5.984;2023-08-06T12:29:43;18.93;83.42
47861;HTU21D;33620;52.340;5.984;2023-08-06T12:32:10;18.94;83.60
47861;HTU21D;33620;52.340;5.984;2023-08-06T12:34:37;18.94;83.94
47861;HTU21D;33620;52.340;5.984;2023-08-06T12:37:03;18.89;83.69
47861;HTU21D;33620;52.340;5.984;2023-08-06T12:39:28;18.77;84.16
47861;HTU21D;33620;52.340;5.984;2023-08-06T12:41:57;18.88;84.96
47861;HTU21D;33620;52.340;5.984;2023-08-06T12:44:23;18.71;84.41
47861;HTU21D;33620;52.340;5.984;2023-08-06T12:46:50;18.71;85.37
47861;HTU21D;33620;52.340;5.984;2023-08-06T12:49:15;18.52;85.22
47861;HTU21D;33620;52.340;5.984;2023-08-06T12:51:41;18.44;86.48
47861;HTU21D;33620;52.340;5.984;2023-08-06T12:54:06;18.35;86.83
47861;HTU21D;33620;52.340;5.984;2023-08-06T12:56:32;18.21;87.13
47861;HTU21D;33620;52.340;5.984;2023-08-06T12:58:57;18.06;87.33
47861;HTU21D;33620;52.340;5.984;2023-08-06T13:01:22;17.94;87.94
47861;HTU21D;33620;52.340;5.984;2023-08-06T13:03:48;17.85;88.60
47861;HTU21D;33620;52.340;5.984;2023-08-06T13:06:13;17.74;89.18
47861;HTU21D;33620;52.340;5.984;2023-08-06T13:08:38;17.60;89.96
47861;HTU21D;33620;52.340;5.984;2023-08-06T13:11:04;17.60;91.02
47861;HTU21D;33620;52.340;5.984;2023-08-06T13:13:30;17.66;90.97
47861;HTU21D;33620;52.340;5.984;2023-08-06T13:15:55;17.63;90.63
47861;HTU21D;33620;52.340;5.984;2023-08-06T13:18:20;17.55;90.67
47861;HTU21D;33620;52.340;5.984;2023-08-06T13:20:46;17.43;89.87
47861;HTU21D;33620;52.340;5.984;2023-08-06T13:23:13;17.28;89.64
47861;HTU21D;33620;52.340;5.984;2023-08-06T13:25:41;17.23;90.18
47861;HTU21D;33620;52.340;5.984;2023-08-06T13:28:06;17.25;90.42
47861;HTU21D;33620;52.340;5.984;2023-08-06T13:30:32;17.21;90.77
47861;HTU21D;33620;52.340;5.984;2023-08-06T13:32:57;17.19;90.93
47861;HTU21D;33620;52.340;5.984;2023-08-06T13:35:23;17.28;91.49
47861;HTU21D;33620;52.340;5.984;2023-08-06T13:37:49;17.24;91.10
47861;HTU21D;33620;52.340;5.984;2023-08-06T13:40:15;17.23;91.23
47861;HTU21D;33620;52.340;5.984;2023-08-06T13:42:40;17.19;91.33
47861;HTU21D;33620;52.340;5.984;2023-08-06T13:45:06;17.15;91.34
47861;HTU21D;33620;52.340;5.984;2023-08-06T13:47:32;17.20;91.85
47861;HTU21D;33620;52.340;5.984;2023-08-06T13:49:57;17.25;91.96
47861;HTU21D;33620;52.340;5.984;2023-08-06T13:52:25;17.22;91.53
47861;HTU21D;33620;52.340;5.984;2023-08-06T13:54:51;17.19;91.80
47861;HTU21D;33620;52.340;5.984;2023-08-06T13:57:16;17.18;91.70
47861;HTU21D;33620;52.340;5.984;2023-08-06T13:59:42;17.19;91.94
47861;HTU21D;33620;52.340;5.984;2023-08-06T14:02:09;17.18;92.20
47861;HTU21D;33620;52.340;5.984;2023-08-06T14:04:34;17.19;92.60
47861;HTU21D;33620;52.340;5.984;2023-08-06T14:06:59;17.17;92.30
47861;HTU21D;33620;52.340;5.984;2023-08-06T14:09:25;17.08;92.30
47861;HTU21D;33620;52.340;5.984;2023-08-06T14:11:50;17.05;91.83
47861;HTU21D;33620;52.340;5.984;2023-08-06T14:14:16;16.99;91.63
47861;HTU21D;33620;52.340;5.984;2023-08-06T14:16:41;17.03;91.49
47861;HTU21D;33620;52.340;5.984;2023-08-06T14:19:06;17.02;91.43
47861;HTU21D;33620;52.340;5.984;2023-08-06T14:21:32;17.02;91.14
47861;HTU21D;33620;52.340;5.984;2023-08-06T14:23:57;17.03;90.99
47861;HTU21D;33620;52.340;5.984;2023-08-06T14:26:22;17.03;90.58
47861;HTU21D;33620;52.340;5.984;2023-08-06T14:28:48;17.07;90.60
47861;HTU21D;33620;52.340;5.984;2023-08-06T14:31:13;17.09;90.26
47861;HTU21D;33620;52.340;5.984;2023-08-06T14:33:39;17.00;89.54
47861;HTU21D;33620;52.340;5.984;2023-08-06T14:36:04;17.04;89.98
47861;HTU21D;33620;52.340;5.984;2023-08-06T14:38:29;17.00;89.28
47861;HTU21D;33620;52.340;5.984;2023-08-06T14:40:55;16.99;89.41
47861;HTU21D;33620;52.340;5.984;2023-08-06T14:43:20;17.02;89.57
47861;HTU21D;33620;52.340;5.984;2023-08-06T14:45:46;17.05;89.74
47861;HTU21D;33620;52.340;5.984;2023-08-06T14:48:11;17.05;89.45
47861;HTU21D;33620;52.340;5.984;2023-08-06T14:50:36;17.09;89.71
47861;HTU21D;33620;52.340;5.984;2023-08-06T14:53:04;17.01;88.88
47861;HTU21D;33620;52.340;5.984;2023-08-06T14:55:30;17.00;89.51
47861;HTU21D;33620;52.340;5.984;2023-08-06T14:57:56;17.02;89.73
47861;HTU21D;33620;52.340;5.984;2023-08-06T15:00:21;16.96;89.51
47861;HTU21D;33620;52.340;5.984;2023-08-06T15:02:47;16.98;89.54
47861;HTU21D;33620;52.340;5.984;2023-08-06T15:05:12;17.02;89.89
47861;HTU21D;33620;52.340;5.984;2023-08-06T15:07:38;17.02;89.73
47861;HTU21D;33620;52.340;5.984;2023-08-06T15:10:06;17.04;89.71
47861;HTU21D;33620;52.340;5.984;2023-08-06T15:12:32;17.02;89.38
47861;HTU21D;33620;52.340;5.984;2023-08-06T15:14:58;17.02;89.07